sensor_id;sensor_type;location;lat;lon;timestamp;temperature;humidity
24638;DHT22;12773;50.162;8.548;2023-05-07T00:02:30;18.90;99.90
24638;DHT22;12773;50.162;8.548;2023-05-07T00:05:18;18.90;99.90
24638;DHT22;12773;50.162;8.548;2023-05-07T00:08:06;18.90;99.90
24638;DHT22;12773;50.162;8.548;2023-05-07T00:10:53;18.90;99.90
24638;DHT22;12773;50.162;8.548;2023-05-07T00:13:40;19.00;99.90
24638;DHT22;12773;50.162;8.548;2023-05-07T00:16:28;18.90;99.90
24638;DHT22;12773;50.162;8.548;2023-05-07T00:19:15;18.90;99.90
24638;DHT22;12773;50.162;8.548;2023-05-07T00:22:02;18.90;99.90
24638;DHT22;12773;50.162;8.548;2023-05-07T00:24:50;18.90;99.90
24638;DHT22;12773;50.162;8.548;2023-05-07T00:27:37;18.90;99.90
24638;DHT22;12773;50.162;8.548;2023-05-07T00:30:25;18.80;99.90
24638;DHT22;12773;50.162;8.548;2023-05-07T00:33:15;18.90;99.90
24638;DHT22;12773;50.162;8.548;2023-05-07T00:36:03;18.90;99.90
24638;DHT22;12773;50.162;8.548;2023-05-07T00:38:50;18.90;99.90
24638;DHT22;12773;50.162;8.548;2023-05-07T00:41:38;18.80;99.90
24638;DHT22;12773;50.162;8.548;2023-05-07T00:44:25;18.90;99.90
24638;DHT22;12773;50.162;8.548;2023-05-07T00:47:14;18.80;99.90
24638;DHT22;12773;50.162;8.548;2023-05-07T00:50:01;18.80;99.90
24638;DHT22;12773;50.162;8.548;2023-05-07T00:52:49;18.80;99.90
24638;DHT22;12773;50.162;8.548;2023-05-07T00:55:37;18.70;99.90
24638;DHT22;12773;50.162;8.548;2023-05-07T00:58:24;18.70;99.90
24638;DHT22;12773;50.162;8.548;2023-05-07T01:01:12;18.70;99.90
24638;DHT22;12773;50.162;8.548;2023-05-07T01:03:59;18.60;99.90
24638;DHT22;12773;50.162;8.548;2023-05-07T01:06:47;18.60;99.90
24638;DHT22;12773;50.162;8.548;2023-05-07T01:09:36;18.60;99.90
24638;DHT22;12773;50.162;8.548;2023-05-07T01:12:25;18.60;99.90
24638;DHT22;12773;50.162;8.548;2023-05-07T01:15:14;18.60;99.90
24638;DHT22;12773;50.162;8.548;2023-05-07T01:18:02;18.60;99.90
24638;DHT22;12773;50.162;8.548;2023-05-07T01:20:49;18.60;99.90
24638;DHT22;12773;50.162;8.548;2023-05-07T01:23:37;18.60;99.90
24638;DHT22;12773;50.162;8.548;2023-05-07T01:26:26;18.60;99.90
24638;DHT22;12773;50.162;8.548;2023-05-07T01:29:13;18.60;99.90
24638;DHT22;12773;50.162;8.548;2023-05-07T01:32:01;18.50;99.90
24638;DHT22;12773;50.162;8.548;2023-05-07T01:34:50;18.50;99.90
24638;DHT22;12773;50.162;8.548;2023-05-07T01:37:40;18.50;99.90
24638;DHT22;12773;50.162;8.548;2023-05-07T01:40:27;18.50;99.90
24638;DHT22;12773;50.162;8.548;2023-05-07T01:43:14;18.40;99.90
24638;DHT22;12773;50.162;8.548;2023-05-07T01:46:03;18.40;99.90
24638;DHT22;12773;50.162;8.548;2023-05-07T01:48:50;18.40;99.90
24638;DHT22;12773;50.162;8.548;2023-05-07T01:51:39;18.40;99.90
24638;DHT22;12773;50.162;8.548;2023-05-07T01:54:27;18.40;99.90
24638;DHT22;12773;50.162;8.548;2023-05-07T01:57:15;18.30;99.90
24638;DHT22;12773;50.162;8.548;2023-05-07T02:00:03;18.30;99.90
24638;DHT22;12773;50.162;8.548;2023-05-07T02:02:51;18.40;99.90
24638;DHT22;12773;50.162;8.548;2023-05-07T02:05:39;18.40;99.90
24638;DHT22;12773;50.162;8.548;2023-05-07T02:08:26;18.40;99.90
24638;DHT22;12773;50.162;8.548;2023-05-07T02:11:14;18.40;99.90
24638;DHT22;12773;50.162;8.548;2023-05-07T02:14:01;18.40;99.90
24638;DHT22;12773;50.162;8.548;2023-05-07T02:16:49;18.30;99.90
24638;DHT22;12773;50.162;8.548;2023-05-07T02:19:36;18.40;99.90
24638;DHT22;12773;50.162;8.548;2023-05-07T02:22:23;18.40;99.90
24638;DHT22;12773;50.162;8.548;2023-05-07T02:25:11;18.40;99.90
24638;DHT22;12773;50.162;8.548;2023-05-07T02:28:00;18.40;99.90
24638;DHT22;12773;50.162;8.548;2023-05-07T02:30:47;18.40;99.90
24638;DHT22;12773;50.162;8.548;2023-05-07T02:33:35;18.40;99.90
24638;DHT22;12773;50.162;8.548;2023-05-07T02:36:22;18.40;99.90
24638;DHT22;12773;50.162;8.548;2023-05-07T02:39:10;18.40;99.90
24638;DHT22;12773;50.162;8.548;2023-05-07T02:41:57;18.40;99.90
24638;DHT22;12773;50.162;8.548;2023-05-07T02:44:45;18.40;99.90
24638;DHT22;12773;50.162;8.548;2023-05-07T02:47:32;18.40;99.90
24638;DHT22;12773;50.162;8.548;2023-05-07T02:50:19;18.40;99.90
24638;DHT22;12773;50.162;8.548;2023-05-07T02:53:07;18.40;99.90
24638;DHT22;12773;50.162;8.548;2023-05-07T02:55:56;18.40;99.90
24638;DHT22;12773;50.162;8.548;2023-05-07T02:58:43;18.40;99.90
24638;DHT22;12773;50.162;8.548;2023-05-07T03:01:30;18.30;99.90
24638;DHT22;12773;50.162;8.548;2023-05-07T03:04:18;18.30;99.90
24638;DHT22;12773;50.162;8.548;2023-05-07T03:07:05;18.30;99.90
24638;DHT22;12773;50.162;8.548;2023-05-07T03:09:52;18.30;99.90
24638;DHT22;12773;50.162;8.548;2023-05-07T03:12:40;18.30;99.90
24638;DHT22;12773;50.162;8.548;2023-05-07T03:15:27;18.20;99.90
24638;DHT22;12773;50.162;8.548;2023-05-07T03:18:15;18.20;99.90
24638;DHT22;12773;50.162;8.548;2023-05-07T03:21:03;18.10;99.90
24638;DHT22;12773;50.162;8.548;2023-05-07T03:23:50;18.10;99.90
24638;DHT22;12773;50.162;8.548;2023-05-07T03:26:38;18.10;99.90
24638;DHT22;12773;50.162;8.548;2023-05-07T03:29:25;18.00;99.90
24638;DHT22;12773;50.162;8.548;2023-05-07T03:32:13;18.00;99.90
24638;DHT22;12773;50.162;8.548;2023-05-07T03:35:00;18.10;99.90
24638;DHT22;12773;50.162;8.548;2023-05-07T03:37:48;18.10;99.90
24638;DHT22;12773;50.162;8.548;2023-05-07T03:40:37;18.10;99.90
24638;DHT22;12773;50.162;8.548;2023-05-07T03:43:24;18.10;99.90
24638;DHT22;12773;50.162;8.548;2023-05-07T03:46:12;18.10;99.90
24638;DHT22;12773;50.162;8.548;2023-05-07T03:48:59;18.10;99.90
24638;DHT22;12773;50.162;8.548;2023-05-07T03:51:47;18.10;99.90
24638;DHT22;12773;50.162;8.548;2023-05-07T03:54:34;18.10;99.90
24638;DHT22;12773;50.162;8.548;2023-05-07T03:57:21;17.90;99.90
24638;DHT22;12773;50.162;8.548;2023-05-07T04:00:09;17.90;99.90
24638;DHT22;12773;50.162;8.548;2023-05-07T04:02:58;17.90;99.90
24638;DHT22;12773;50.162;8.548;2023-05-07T04:05:45;17.90;99.90
24638;DHT22;12773;50.162;8.548;2023-05-07T04:08:33;17.90;99.90
24638;DHT22;12773;50.162;8.548;2023-05-07T04:11:20;17.80;99.90
24638;DHT22;12773;50.162;8.548;2023-05-07T04:14:08;17.90;99.90
24638;DHT22;12773;50.162;8.548;2023-05-07T04:16:55;17.80;99.90
24638;DHT22;12773;50.162;8.548;2023-05-07T04:19:43;17.80;99.90
24638;DHT22;12773;50.162;8.548;2023-05-07T04:22:31;17.80;99.90
24638;DHT22;12773;50.162;8.548;2023-05-07T04:25:19;17.80;99.90
24638;DHT22;12773;50.162;8.548;2023-05-07T04:28:06;17.80;99.90
24638;DHT22;12773;50.162;8.548;2023-05-07T04:30:54;17.90;99.90
24638;DHT22;12773;50.162;8.548;2023-05-07T04:33:41;17.90;99.90
24638;DHT22;12773;50.162;8.548;2023-05-07T04:36:30;17.90;99.90
24638;DHT22;12773;50.162;8.548;2023-05-07T04:39:19;17.90;99.90
24638;DHT22;12773;50.162;8.548;2023-05-07T04:42:07;17.90;99.90
24638;DHT22;12773;50.162;8.548;2023-05-07T04:44:55;17.90;99.90
24638;DHT22;12773;50.162;8.548;2023-05-07T04:47:42;18.00;99.90
24638;DHT22;12773;50.162;8.548;2023-05-07T04:50:30;17.90;99.90
24638;DHT22;12773;50.162;8.548;2023-05-07T04:53:17;18.00;99.90
24638;DHT22;12773;50.162;8.548;2023-05-07T04:56:05;18.00;99.90
24638;DHT22;12773;50.162;8.548;2023-05-07T04:58:52;18.00;99.90
24638;DHT22;12773;50.162;8.548;2023-05-07T05:01:40;18.00;99.90
24638;DHT22;12773;50.162;8.548;2023-05-07T05:04:28;18.10;99.90
24638;DHT22;12773;50.162;8.548;2023-05-07T05:07:15;18.10;99.90
24638;DHT22;12773;50.162;8.548;2023-05-07T05:10:04;18.10;99.90
24638;DHT22;12773;50.162;8.548;2023-05-07T05:12:52;18.10;99.90
24638;DHT22;12773;50.162;8.548;2023-05-07T05:15:40;18.10;99.90
24638;DHT22;12773;50.162;8.548;2023-05-07T05:18:27;18.20;99.90
24638;DHT22;12773;50.162;8.548;2023-05-07T05:21:15;18.20;99.90
24638;DHT22;12773;50.162;8.548;2023-05-07T05:24:02;18.20;99.90
24638;DHT22;12773;50.162;8.548;2023-05-07T05:26:51;18.20;99.90
24638;DHT22;12773;50.162;8.548;2023-05-07T05:29:39;18.20;99.90
24638;DHT22;12773;50.162;8.548;2023-05-07T05:32:26;18.20;99.90
24638;DHT22;12773;50.162;8.548;2023-05-07T05:35:14;18.30;99.90
24638;DHT22;12773;50.162;8.548;2023-05-07T05:38:02;18.40;99.90
24638;DHT22;12773;50.162;8.548;2023-05-07T05:40:49;18.60;99.90
24638;DHT22;12773;50.162;8.548;2023-05-07T05:43:37;18.60;99.90
24638;DHT22;12773;50.162;8.548;2023-05-07T05:46:24;18.60;99.90
24638;DHT22;12773;50.162;8.548;2023-05-07T05:49:12;18.70;99.90
24638;DHT22;12773;50.162;8.548;2023-05-07T05:51:59;18.70;99.90
24638;DHT22;12773;50.162;8.548;2023-05-07T05:54:47;18.70;99.90
24638;DHT22;12773;50.162;8.548;2023-05-07T05:57:35;18.80;99.90
24638;DHT22;12773;50.162;8.548;2023-05-07T06:00:23;18.80;99.90
24638;DHT22;12773;50.162;8.548;2023-05-07T06:03:10;19.00;99.90
24638;DHT22;12773;50.162;8.548;2023-05-07T06:05:59;19.10;99.90
24638;DHT22;12773;50.162;8.548;2023-05-07T06:08:46;19.10;99.90
24638;DHT22;12773;50.162;8.548;2023-05-07T06:11:34;19.00;99.90
24638;DHT22;12773;50.162;8.548;2023-05-07T06:14:21;19.10;99.90
24638;DHT22;12773;50.162;8.548;2023-05-07T06:17:08;19.00;99.90
24638;DHT22;12773;50.162;8.548;2023-05-07T06:19:56;19.20;99.90
24638;DHT22;12773;50.162;8.548;2023-05-07T06:22:43;19.00;99.90
24638;DHT22;12773;50.162;8.548;2023-05-07T06:25:30;19.10;99.90
24638;DHT22;12773;50.162;8.548;2023-05-07T06:28:18;19.10;99.90
24638;DHT22;12773;50.162;8.548;2023-05-07T06:31:19;19.20;99.90
24638;DHT22;12773;50.162;8.548;2023-05-07T06:34:10;19.30;99.90
24638;DHT22;12773;50.162;8.548;2023-05-07T06:36:59;19.30;99.90
24638;DHT22;12773;50.162;8.548;2023-05-07T06:39:46;19.30;99.90
24638;DHT22;12773;50.162;8.548;2023-05-07T06:42:35;19.20;99.90
24638;DHT22;12773;50.162;8.548;2023-05-07T06:45:23;19.30;99.90
24638;DHT22;12773;50.162;8.548;2023-05-07T06:48:11;19.20;99.90
24638;DHT22;12773;50.162;8.548;2023-05-07T06:50:59;19.30;99.90
24638;DHT22;12773;50.162;8.548;2023-05-07T06:53:46;19.10;99.90
24638;DHT22;12773;50.162;8.548;2023-05-07T06:56:33;19.30;99.90
24638;DHT22;12773;50.162;8.548;2023-05-07T06:59:21;19.30;99.90
24638;DHT22;12773;50.162;8.548;2023-05-07T07:02:08;19.50;99.90
24638;DHT22;12773;50.162;8.548;2023-05-07T07:04:56;19.80;99.90
24638;DHT22;12773;50.162;8.548;2023-05-07T07:07:43;19.90;99.90
24638;DHT22;12773;50.162;8.548;2023-05-07T07:10:31;20.10;99.90
24638;DHT22;12773;50.162;8.548;2023-05-07T07:13:18;20.10;99.90
24638;DHT22;12773;50.162;8.548;2023-05-07T07:16:06;20.20;99.90
24638;DHT22;12773;50.162;8.548;2023-05-07T07:18:53;20.10;99.90
24638;DHT22;12773;50.162;8.548;2023-05-07T07:21:41;20.20;99.90
24638;DHT22;12773;50.162;8.548;2023-05-07T07:24:29;20.50;99.90
24638;DHT22;12773;50.162;8.548;2023-05-07T07:27:16;20.60;99.90
24638;DHT22;12773;50.162;8.548;2023-05-07T07:30:03;20.60;99.90
24638;DHT22;12773;50.162;8.548;2023-05-07T07:32:51;20.90;99.90
24638;DHT22;12773;50.162;8.548;2023-05-07T07:35:38;21.10;99.90
24638;DHT22;12773;50.162;8.548;2023-05-07T07:38:26;21.20;99.90
24638;DHT22;12773;50.162;8.548;2023-05-07T07:41:14;21.20;99.90
24638;DHT22;12773;50.162;8.548;2023-05-07T07:44:02;21.10;99.90
24638;DHT22;12773;50.162;8.548;2023-05-07T07:46:50;21.30;99.90
24638;DHT22;12773;50.162;8.548;2023-05-07T07:49:37;21.10;99.90
24638;DHT22;12773;50.162;8.548;2023-05-07T07:52:24;20.90;99.90
24638;DHT22;12773;50.162;8.548;2023-05-07T07:55:12;20.90;99.90
24638;DHT22;12773;50.162;8.548;2023-05-07T07:58:00;21.20;99.90
24638;DHT22;12773;50.162;8.548;2023-05-07T08:00:47;21.10;99.90
24638;DHT22;12773;50.162;8.548;2023-05-07T08:03:35;21.10;99.90
24638;DHT22;12773;50.162;8.548;2023-05-07T08:06:22;21.10;99.90
24638;DHT22;12773;50.162;8.548;2023-05-07T08:09:09;21.20;99.90
24638;DHT22;12773;50.162;8.548;2023-05-07T08:11:57;21.30;99.90
24638;DHT22;12773;50.162;8.548;2023-05-07T08:14:44;21.80;99.90
24638;DHT22;12773;50.162;8.548;2023-05-07T08:17:31;21.70;99.90
24638;DHT22;12773;50.162;8.548;2023-05-07T08:20:19;21.80;99.90
24638;DHT22;12773;50.162;8.548;2023-05-07T08:23:06;21.80;99.90
24638;DHT22;12773;50.162;8.548;2023-05-07T08:25:54;21.80;99.90
24638;DHT22;12773;50.162;8.548;2023-05-07T08:28:41;21.60;99.90
24638;DHT22;12773;50.162;8.548;2023-05-07T08:31:33;21.40;99.90
24638;DHT22;12773;50.162;8.548;2023-05-07T08:34:18;21.50;99.90
24638;DHT22;12773;50.162;8.548;2023-05-07T08:37:05;21.40;99.90
24638;DHT22;12773;50.162;8.548;2023-05-07T08:39:52;21.40;99.90
24638;DHT22;12773;50.162;8.548;2023-05-07T08:42:40;21.40;99.90
24638;DHT22;12773;50.162;8.548;2023-05-07T08:45:28;21.40;99.90
24638;DHT22;12773;50.162;8.548;2023-05-07T08:48:17;21.80;99.90
24638;DHT22;12773;50.162;8.548;2023-05-07T08:51:08;22.00;99.90
24638;DHT22;12773;50.162;8.548;2023-05-07T08:53:55;22.00;99.90
24638;DHT22;12773;50.162;8.548;2023-05-07T08:56:43;22.10;99.90
24638;DHT22;12773;50.162;8.548;2023-05-07T08:59:30;22.40;99.90
24638;DHT22;12773;50.162;8.548;2023-05-07T09:02:18;22.50;99.90
24638;DHT22;12773;50.162;8.548;2023-05-07T09:05:06;22.60;99.90
24638;DHT22;12773;50.162;8.548;2023-05-07T09:07:54;22.50;99.90
24638;DHT22;12773;50.162;8.548;2023-05-07T09:10:43;22.30;99.90
24638;DHT22;12773;50.162;8.548;2023-05-07T09:13:31;22.40;99.90
24638;DHT22;12773;50.162;8.548;2023-05-07T09:16:20;22.40;99.90
24638;DHT22;12773;50.162;8.548;2023-05-07T09:19:08;22.80;99.90
24638;DHT22;12773;50.162;8.548;2023-05-07T09:22:03;23.10;99.90
24638;DHT22;12773;50.162;8.548;2023-05-07T09:24:51;22.90;99.90
24638;DHT22;12773;50.162;8.548;2023-05-07T09:27:38;22.60;99.90
24638;DHT22;12773;50.162;8.548;2023-05-07T09:30:30;22.70;99.90
24638;DHT22;12773;50.162;8.548;2023-05-07T09:33:17;23.20;99.90
24638;DHT22;12773;50.162;8.548;2023-05-07T09:36:06;22.90;99.90
24638;DHT22;12773;50.162;8.548;2023-05-07T09:38:54;23.10;99.90
24638;DHT22;12773;50.162;8.548;2023-05-07T09:41:49;23.00;99.90
24638;DHT22;12773;50.162;8.548;2023-05-07T09:44:38;23.00;99.90
24638;DHT22;12773;50.162;8.548;2023-05-07T09:47:27;22.70;99.90
24638;DHT22;12773;50.162;8.548;2023-05-07T09:50:16;23.10;99.90
24638;DHT22;12773;50.162;8.548;2023-05-07T09:53:04;22.90;99.90
24638;DHT22;12773;50.162;8.548;2023-05-07T09:55:53;23.10;99.90
24638;DHT22;12773;50.162;8.548;2023-05-07T09:58:41;23.10;99.90
24638;DHT22;12773;50.162;8.548;2023-05-07T10:01:31;23.00;99.90
24638;DHT22;12773;50.162;8.548;2023-05-07T10:04:20;23.00;99.90
24638;DHT22;12773;50.162;8.548;2023-05-07T10:07:08;23.30;99.90
24638;DHT22;12773;50.162;8.548;2023-05-07T10:09:56;23.60;99.90
24638;DHT22;12773;50.162;8.548;2023-05-07T10:12:45;23.90;99.90
24638;DHT22;12773;50.162;8.548;2023-05-07T10:15:34;24.30;99.90
24638;DHT22;12773;50.162;8.548;2023-05-07T10:18:22;24.80;99.90
24638;DHT22;12773;50.162;8.548;2023-05-07T10:21:16;25.30;99.90
24638;DHT22;12773;50.162;8.548;2023-05-07T10:24:16;25.80;99.90
24638;DHT22;12773;50.162;8.548;2023-05-07T10:27:05;26.30;99.90
24638;DHT22;12773;50.162;8.548;2023-05-07T10:30:05;26.00;98.70
24638;DHT22;12773;50.162;8.548;2023-05-07T10:32:50;25.00;99.20
24638;DHT22;12773;50.162;8.548;2023-05-07T10:35:40;25.40;99.90
24638;DHT22;12773;50.162;8.548;2023-05-07T10:38:28;25.20;99.90
24638;DHT22;12773;50.162;8.548;2023-05-07T10:41:16;25.30;99.40
24638;DHT22;12773;50.162;8.548;2023-05-07T10:44:04;25.30;99.10
24638;DHT22;12773;50.162;8.548;2023-05-07T10:47:09;25.10;98.40
24638;DHT22;12773;50.162;8.548;2023-05-07T10:59:30;26.60;98.50
24638;DHT22;12773;50.162;8.548;2023-05-07T11:02:18;26.90;97.80
24638;DHT22;12773;50.162;8.548;2023-05-07T11:05:22;26.70;95.20
24638;DHT22;12773;50.162;8.548;2023-05-07T11:08:10;26.50;95.30
24638;DHT22;12773;50.162;8.548;2023-05-07T11:10:57;26.80;96.90
24638;DHT22;12773;50.162;8.548;2023-05-07T11:13:47;26.80;95.70
24638;DHT22;12773;50.162;8.548;2023-05-07T11:16:35;27.20;96.70
24638;DHT22;12773;50.162;8.548;2023-05-07T11:19:52;27.60;95.00
24638;DHT22;12773;50.162;8.548;2023-05-07T11:22:39;27.30;93.00
24638;DHT22;12773;50.162;8.548;2023-05-07T11:25:27;27.10;95.10
24638;DHT22;12773;50.162;8.548;2023-05-07T11:28:15;26.70;94.10
24638;DHT22;12773;50.162;8.548;2023-05-07T11:31:03;26.90;95.40
24638;DHT22;12773;50.162;8.548;2023-05-07T11:33:51;27.20;95.40
24638;DHT22;12773;50.162;8.548;2023-05-07T11:36:45;27.50;93.20
24638;DHT22;12773;50.162;8.548;2023-05-07T11:39:31;27.30;92.70
24638;DHT22;12773;50.162;8.548;2023-05-07T11:42:27;27.20;92.00
24638;DHT22;12773;50.162;8.548;2023-05-07T11:45:22;27.30;92.20
24638;DHT22;12773;50.162;8.548;2023-05-07T11:48:05;27.70;94.20
24638;DHT22;12773;50.162;8.548;2023-05-07T11:51:01;27.40;92.00
24638;DHT22;12773;50.162;8.548;2023-05-07T11:53:49;27.40;95.20
24638;DHT22;12773;50.162;8.548;2023-05-07T11:56:37;27.60;91.80
24638;DHT22;12773;50.162;8.548;2023-05-07T11:59:24;27.60;90.80
24638;DHT22;12773;50.162;8.548;2023-05-07T12:02:14;27.00;90.90
24638;DHT22;12773;50.162;8.548;2023-05-07T12:05:01;27.00;92.20
24638;DHT22;12773;50.162;8.548;2023-05-07T12:07:49;26.90;92.80
24638;DHT22;12773;50.162;8.548;2023-05-07T12:10:42;27.30;92.70
24638;DHT22;12773;50.162;8.548;2023-05-07T12:13:30;27.70;92.20
24638;DHT22;12773;50.162;8.548;2023-05-07T12:16:18;27.20;89.30
24638;DHT22;12773;50.162;8.548;2023-05-07T12:19:08;26.90;90.70
24638;DHT22;12773;50.162;8.548;2023-05-07T12:21:59;26.90;91.30
24638;DHT22;12773;50.162;8.548;2023-05-07T12:24:56;27.10;91.70
24638;DHT22;12773;50.162;8.548;2023-05-07T12:27:37;27.70;91.30
24638;DHT22;12773;50.162;8.548;2023-05-07T12:30:26;28.10;90.20
24638;DHT22;12773;50.162;8.548;2023-05-07T12:33:25;28.10;87.50
24638;DHT22;12773;50.162;8.548;2023-05-07T12:36:15;27.80;86.80
24638;DHT22;12773;50.162;8.548;2023-05-07T12:39:05;27.50;88.00
24638;DHT22;12773;50.162;8.548;2023-05-07T12:41:57;27.30;88.40
24638;DHT22;12773;50.162;8.548;2023-05-07T12:44:46;27.30;87.10
24638;DHT22;12773;50.162;8.548;2023-05-07T12:47:33;27.20;88.10
24638;DHT22;12773;50.162;8.548;2023-05-07T12:50:21;27.60;89.20
24638;DHT22;12773;50.162;8.548;2023-05-07T12:53:11;28.00;87.00
24638;DHT22;12773;50.162;8.548;2023-05-07T12:55:59;28.00;84.70
24638;DHT22;12773;50.162;8.548;2023-05-07T12:58:48;27.80;86.10
24638;DHT22;12773;50.162;8.548;2023-05-07T13:01:36;27.50;87.50
24638;DHT22;12773;50.162;8.548;2023-05-07T13:04:25;27.50;86.50
24638;DHT22;12773;50.162;8.548;2023-05-07T13:07:12;27.20;87.40
24638;DHT22;12773;50.162;8.548;2023-05-07T13:10:00;27.20;89.60
24638;DHT22;12773;50.162;8.548;2023-05-07T13:12:47;27.30;86.30
24638;DHT22;12773;50.162;8.548;2023-05-07T13:15:34;27.00;87.60
24638;DHT22;12773;50.162;8.548;2023-05-07T13:18:23;26.80;88.20
24638;DHT22;12773;50.162;8.548;2023-05-07T13:21:11;26.60;89.10
24638;DHT22;12773;50.162;8.548;2023-05-07T13:23:59;26.50;90.40
24638;DHT22;12773;50.162;8.548;2023-05-07T13:26:47;26.30;90.20
24638;DHT22;12773;50.162;8.548;2023-05-07T13:29:34;26.40;91.70
24638;DHT22;12773;50.162;8.548;2023-05-07T13:32:22;26.40;91.40
24638;DHT22;12773;50.162;8.548;2023-05-07T13:35:09;26.50;91.70
24638;DHT22;12773;50.162;8.548;2023-05-07T13:37:58;26.40;90.90
24638;DHT22;12773;50.162;8.548;2023-05-07T13:40:45;26.30;91.40
24638;DHT22;12773;50.162;8.548;2023-05-07T13:43:32;26.30;90.90
24638;DHT22;12773;50.162;8.548;2023-05-07T13:46:20;26.40;91.10
24638;DHT22;12773;50.162;8.548;2023-05-07T13:49:07;26.70;90.50
24638;DHT22;12773;50.162;8.548;2023-05-07T13:51:56;27.10;89.30
24638;DHT22;12773;50.162;8.548;2023-05-07T13:54:44;27.30;89.50
24638;DHT22;12773;50.162;8.548;2023-05-07T13:57:31;27.70;91.00
24638;DHT22;12773;50.162;8.548;2023-05-07T14:00:18;28.10;88.00
24638;DHT22;12773;50.162;8.548;2023-05-07T14:03:06;28.20;89.80
24638;DHT22;12773;50.162;8.548;2023-05-07T14:05:54;28.50;86.40
24638;DHT22;12773;50.162;8.548;2023-05-07T14:08:42;28.20;84.90
24638;DHT22;12773;50.162;8.548;2023-05-07T14:11:29;27.90;86.20
24638;DHT22;12773;50.162;8.548;2023-05-07T14:14:18;27.90;85.70
24638;DHT22;12773;50.162;8.548;2023-05-07T14:17:06;28.00;87.60
24638;DHT22;12773;50.162;8.548;2023-05-07T14:19:54;28.20;87.70
24638;DHT22;12773;50.162;8.548;2023-05-07T14:22:42;28.40;84.80
24638;DHT22;12773;50.162;8.548;2023-05-07T14:25:30;28.20;83.90
24638;DHT22;12773;50.162;8.548;2023-05-07T14:28:17;27.60;83.90
24638;DHT22;12773;50.162;8.548;2023-05-07T14:31:05;27.40;84.00
24638;DHT22;12773;50.162;8.548;2023-05-07T14:33:52;27.80;87.40
24638;DHT22;12773;50.162;8.548;2023-05-07T14:36:40;27.90;82.40
24638;DHT22;12773;50.162;8.548;2023-05-07T14:39:28;28.00;86.80
24638;DHT22;12773;50.162;8.548;2023-05-07T14:42:16;28.10;83.50
24638;DHT22;12773;50.162;8.548;2023-05-07T14:45:04;28.00;84.20
24638;DHT22;12773;50.162;8.548;2023-05-07T14:47:52;28.00;81.90
24638;DHT22;12773;50.162;8.548;2023-05-07T14:50:39;27.60;82.00
24638;DHT22;12773;50.162;8.548;2023-05-07T14:53:27;27.30;82.80
24638;DHT22;12773;50.162;8.548;2023-05-07T14:56:14;27.30;83.20
24638;DHT22;12773;50.162;8.548;2023-05-07T14:59:02;27.30;84.70
24638;DHT22;12773;50.162;8.548;2023-05-07T15:01:50;27.40;84.60
24638;DHT22;12773;50.162;8.548;2023-05-07T15:04:38;27.40;81.30
24638;DHT22;12773;50.162;8.548;2023-05-07T15:07:27;27.40;81.90
24638;DHT22;12773;50.162;8.548;2023-05-07T15:10:15;27.20;81.00
24638;DHT22;12773;50.162;8.548;2023-05-07T15:13:02;27.20;80.70
24638;DHT22;12773;50.162;8.548;2023-05-07T15:15:50;27.30;80.60
24638;DHT22;12773;50.162;8.548;2023-05-07T15:18:38;27.30;83.00
24638;DHT22;12773;50.162;8.548;2023-05-07T15:21:25;27.40;82.70
24638;DHT22;12773;50.162;8.548;2023-05-07T15:24:13;27.30;80.90
24638;DHT22;12773;50.162;8.548;2023-05-07T15:27:00;27.30;82.20
24638;DHT22;12773;50.162;8.548;2023-05-07T15:29:49;27.40;82.20
24638;DHT22;12773;50.162;8.548;2023-05-07T15:32:37;27.40;81.30
24638;DHT22;12773;50.162;8.548;2023-05-07T15:35:25;27.20;82.40
24638;DHT22;12773;50.162;8.548;2023-05-07T15:38:12;27.30;80.70
24638;DHT22;12773;50.162;8.548;2023-05-07T15:41:00;27.30;80.60
24638;DHT22;12773;50.162;8.548;2023-05-07T15:43:50;27.50;81.60
24638;DHT22;12773;50.162;8.548;2023-05-07T15:46:38;27.60;81.80
24638;DHT22;12773;50.162;8.548;2023-05-07T15:49:25;27.80;84.00
24638;DHT22;12773;50.162;8.548;2023-05-07T15:52:13;28.10;81.80
24638;DHT22;12773;50.162;8.548;2023-05-07T15:55:02;27.90;78.60
24638;DHT22;12773;50.162;8.548;2023-05-07T15:57:50;27.90;79.80
24638;DHT22;12773;50.162;8.548;2023-05-07T16:00:37;27.80;78.20
24638;DHT22;12773;50.162;8.548;2023-05-07T16:03:27;27.70;83.00
24638;DHT22;12773;50.162;8.548;2023-05-07T16:06:15;27.60;79.60
24638;DHT22;12773;50.162;8.548;2023-05-07T16:09:03;27.30;79.60
24638;DHT22;12773;50.162;8.548;2023-05-07T16:11:50;27.10;79.70
24638;DHT22;12773;50.162;8.548;2023-05-07T16:14:37;27.00;82.90
24638;DHT22;12773;50.162;8.548;2023-05-07T16:17:25;26.90;79.90
24638;DHT22;12773;50.162;8.548;2023-05-07T16:20:12;26.90;80.80
24638;DHT22;12773;50.162;8.548;2023-05-07T16:23:01;26.90;81.20
24638;DHT22;12773;50.162;8.548;2023-05-07T16:25:49;26.70;80.30
24638;DHT22;12773;50.162;8.548;2023-05-07T16:28:36;26.50;81.10
24638;DHT22;12773;50.162;8.548;2023-05-07T16:31:24;26.50;82.00
24638;DHT22;12773;50.162;8.548;2023-05-07T16:34:11;26.40;83.30
24638;DHT22;12773;50.162;8.548;2023-05-07T16:36:59;26.30;83.90
24638;DHT22;12773;50.162;8.548;2023-05-07T16:39:47;26.00;84.90
24638;DHT22;12773;50.162;8.548;2023-05-07T16:42:35;25.90;87.40
24638;DHT22;12773;50.162;8.548;2023-05-07T16:45:23;25.70;86.60
24638;DHT22;12773;50.162;8.548;2023-05-07T16:48:10;25.60;87.10
24638;DHT22;12773;50.162;8.548;2023-05-07T16:50:58;25.40;87.60
24638;DHT22;12773;50.162;8.548;2023-05-07T16:53:45;25.10;88.00
24638;DHT22;12773;50.162;8.548;2023-05-07T16:56:32;25.00;88.40
24638;DHT22;12773;50.162;8.548;2023-05-07T16:59:20;24.90;88.70
24638;DHT22;12773;50.162;8.548;2023-05-07T17:02:08;24.90;89.00
24638;DHT22;12773;50.162;8.548;2023-05-07T17:04:56;25.00;90.20
24638;DHT22;12773;50.162;8.548;2023-05-07T17:07:43;24.90;91.90
24638;DHT22;12773;50.162;8.548;2023-05-07T17:10:30;23.90;95.20
24638;DHT22;12773;50.162;8.548;2023-05-07T17:13:18;22.70;99.90
24638;DHT22;12773;50.162;8.548;2023-05-07T17:16:05;22.00;99.90
24638;DHT22;12773;50.162;8.548;2023-05-07T17:18:53;21.40;99.90
24638;DHT22;12773;50.162;8.548;2023-05-07T17:21:40;21.00;99.90
24638;DHT22;12773;50.162;8.548;2023-05-07T17:24:28;20.90;99.90
24638;DHT22;12773;50.162;8.548;2023-05-07T17:27:15;20.50;99.90
24638;DHT22;12773;50.162;8.548;2023-05-07T17:30:03;20.40;99.90
24638;DHT22;12773;50.162;8.548;2023-05-07T17:32:51;20.30;99.90
24638;DHT22;12773;50.162;8.548;2023-05-07T17:35:41;20.40;99.90
24638;DHT22;12773;50.162;8.548;2023-05-07T17:38:29;20.40;99.90
24638;DHT22;12773;50.162;8.548;2023-05-07T17:41:16;20.30;99.90
24638;DHT22;12773;50.162;8.548;2023-05-07T17:44:04;20.30;99.90
24638;DHT22;12773;50.162;8.548;2023-05-07T17:46:51;20.30;99.90
24638;DHT22;12773;50.162;8.548;2023-05-07T17:49:39;20.20;99.90
24638;DHT22;12773;50.162;8.548;2023-05-07T17:52:27;20.20;99.90